sensor_id;sensor_type;location;lat;lon;timestamp;pressure;altitude;pressure_sealevel;temperature;humidity
47761;BME280;33524;55.434;38.520;2023-04-22T00:00:41;99730.41;;;5.52;56.79
47761;BME280;33524;55.434;38.520;2023-04-22T00:03:09;99733.94;;;5.51;56.47
47761;BME280;33524;55.434;38.520;2023-04-22T00:05:38;99720.66;;;5.82;54.45
47761;BME280;33524;55.434;38.520;2023-04-22T00:08:07;99725.19;;;5.52;56.49
47761;BME280;33524;55.434;38.520;2023-04-22T00:10:35;99727.97;;;5.63;56.07
47761;BME280;33524;55.434;38.520;2023-04-22T00:13:03;99731.50;;;5.62;56.04
47761;BME280;33524;55.434;38.520;2023-04-22T00:15:31;99738.34;;;5.50;56.45
47761;BME280;33524;55.434;38.520;2023-04-22T00:18:00;99736.91;;;5.59;55.10
47761;BME280;33524;55.434;38.520;2023-04-22T00:20:28;99743.72;;;5.47;56.06
47761;BME280;33524;55.434;38.520;2023-04-22T00:22:58;99740.66;;;4.97;59.05
47761;BME280;33524;55.434;38.520;2023-04-22T00:25:27;99725.84;;;4.83;59.24
47761;BME280;33524;55.434;38.520;2023-04-22T00:27:55;99744.00;;;4.99;59.17
47761;BME280;33524;55.434;38.520;2023-04-22T00:30:23;99744.31;;;5.38;56.83
47761;BME280;33524;55.434;38.520;2023-04-22T00:32:51;99729.31;;;4.98;58.50
47761;BME280;33524;55.434;38.520;2023-04-22T00:35:20;99741.22;;;4.88;59.70
47761;BME280;33524;55.434;38.520;2023-04-22T00:37:47;99745.50;;;5.03;58.74
47761;BME280;33524;55.434;38.520;2023-04-22T00:40:16;99743.78;;;4.74;60.36
47761;BME280;33524;55.434;38.520;2023-04-22T00:42:45;99744.31;;;4.64;60.92
47761;BME280;33524;55.434;38.520;2023-04-22T00:45:18;99741.87;;;4.47;61.56
47761;BME280;33524;55.434;38.520;2023-04-22T00:47:47;99743.75;;;4.59;60.96
47761;BME280;33524;55.434;38.520;2023-04-22T00:50:16;99737.59;;;4.60;60.82
47761;BME280;33524;55.434;38.520;2023-04-22T00:52:44;99741.44;;;4.69;60.39
47761;BME280;33524;55.434;38.520;2023-04-22T00:55:12;99740.44;;;4.72;60.25
47761;BME280;33524;55.434;38.520;2023-04-22T00:57:40;99737.81;;;4.57;60.78
47761;BME280;33524;55.434;38.520;2023-04-22T01:00:09;99746.03;;;4.80;58.87
47761;BME280;33524;55.434;38.520;2023-04-22T01:02:38;99736.31;;;4.53;61.03
47761;BME280;33524;55.434;38.520;2023-04-22T01:05:07;99739.06;;;4.50;61.27
47761;BME280;33524;55.434;38.520;2023-04-22T01:07:36;99740.13;;;4.62;60.71
47761;BME280;33524;55.434;38.520;2023-04-22T01:10:05;99747.25;;;4.89;59.00
47761;BME280;33524;55.434;38.520;2023-04-22T01:12:33;99745.38;;;4.46;61.52
47761;BME280;33524;55.434;38.520;2023-04-22T01:15:02;99740.88;;;4.34;62.05
47761;BME280;33524;55.434;38.520;2023-04-22T01:17:32;99741.19;;;4.43;60.91
47761;BME280;33524;55.434;38.520;2023-04-22T01:20:01;99741.34;;;4.10;63.19
47761;BME280;33524;55.434;38.520;2023-04-22T01:22:35;99742.59;;;4.19;62.68
47761;BME280;33524;55.434;38.520;2023-04-22T01:25:06;99738.81;;;4.09;63.21
47761;BME280;33524;55.434;38.520;2023-04-22T01:27:34;99731.28;;;4.04;63.58
47761;BME280;33524;55.434;38.520;2023-04-22T01:30:04;99738.22;;;4.19;62.03
47761;BME280;33524;55.434;38.520;2023-04-22T01:32:39;99735.03;;;4.30;61.49
47761;BME280;33524;55.434;38.520;2023-04-22T01:35:08;99731.22;;;3.90;64.04
47761;BME280;33524;55.434;38.520;2023-04-22T01:37:37;99731.34;;;4.18;62.17
47761;BME280;33524;55.434;38.520;2023-04-22T01:40:08;99728.97;;;4.30;61.02
47761;BME280;33524;55.434;38.520;2023-04-22T01:42:37;99713.00;;;3.90;63.34
47761;BME280;33524;55.434;38.520;2023-04-22T01:45:05;99721.78;;;4.03;63.04
47761;BME280;33524;55.434;38.520;2023-04-22T01:47:34;99725.66;;;4.42;60.09
47761;BME280;33524;55.434;38.520;2023-04-22T01:50:02;99733.19;;;4.16;62.19
47761;BME280;33524;55.434;38.520;2023-04-22T01:52:31;99730.28;;;3.59;65.58
47761;BME280;33524;55.434;38.520;2023-04-22T01:54:59;99727.13;;;3.54;66.34
47761;BME280;33524;55.434;38.520;2023-04-22T01:57:29;99724.56;;;4.16;61.74
47761;BME280;33524;55.434;38.520;2023-04-22T01:59:57;99715.59;;;3.90;63.21
47761;BME280;33524;55.434;38.520;2023-04-22T02:02:25;99725.47;;;3.99;63.23
47761;BME280;33524;55.434;38.520;2023-04-22T02:04:53;99731.69;;;3.96;63.70
47761;BME280;33524;55.434;38.520;2023-04-22T02:07:22;99729.88;;;3.82;64.33
47761;BME280;33524;55.434;38.520;2023-04-22T02:09:50;99722.50;;;3.75;64.50
47761;BME280;33524;55.434;38.520;2023-04-22T02:12:18;99729.47;;;3.74;65.25
47761;BME280;33524;55.434;38.520;2023-04-22T02:14:46;99727.28;;;3.82;64.68
47761;BME280;33524;55.434;38.520;2023-04-22T02:17:34;99730.69;;;4.15;61.82
47761;BME280;33524;55.434;38.520;2023-04-22T02:20:03;99730.47;;;3.88;64.63
47761;BME280;33524;55.434;38.520;2023-04-22T02:22:34;99733.50;;;3.64;65.71
47761;BME280;33524;55.434;38.520;2023-04-22T02:25:03;99732.38;;;3.52;66.70
47761;BME280;33524;55.434;38.520;2023-04-22T02:27:32;99743.38;;;3.73;65.46
47761;BME280;33524;55.434;38.520;2023-04-22T02:30:00;99735.25;;;3.48;66.83
47761;BME280;33524;55.434;38.520;2023-04-22T02:32:30;99738.94;;;3.43;67.43
47761;BME280;33524;55.434;38.520;2023-04-22T02:34:58;99738.91;;;3.59;65.98
47761;BME280;33524;55.434;38.520;2023-04-22T02:37:26;99742.63;;;3.39;68.00
47761;BME280;33524;55.434;38.520;2023-04-22T02:39:54;99739.41;;;3.34;68.27
47761;BME280;33524;55.434;38.520;2023-04-22T02:42:22;99746.53;;;3.47;67.90
47761;BME280;33524;55.434;38.520;2023-04-22T02:44:50;99742.09;;;3.49;67.98
47761;BME280;33524;55.434;38.520;2023-04-22T02:47:19;99745.03;;;3.42;68.53
47761;BME280;33524;55.434;38.520;2023-04-22T02:49:48;99750.34;;;3.57;67.87
47761;BME280;33524;55.434;38.520;2023-04-22T02:52:16;99745.12;;;3.57;68.10
47761;BME280;33524;55.434;38.520;2023-04-22T02:54:44;99716.44;;;3.42;67.73
47761;BME280;33524;55.434;38.520;2023-04-22T02:57:12;99747.47;;;4.09;64.11
47761;BME280;33524;55.434;38.520;2023-04-22T02:59:40;99744.63;;;4.44;62.96
47761;BME280;33524;55.434;38.520;2023-04-22T03:02:08;99746.62;;;4.24;63.93
47761;BME280;33524;55.434;38.520;2023-04-22T03:04:40;99742.59;;;4.03;65.63
47761;BME280;33524;55.434;38.520;2023-04-22T03:07:08;99750.13;;;4.23;64.57
47761;BME280;33524;55.434;38.520;2023-04-22T03:09:36;99727.72;;;4.21;64.39
47761;BME280;33524;55.434;38.520;2023-04-22T03:12:04;99750.81;;;4.27;64.45
47761;BME280;33524;55.434;38.520;2023-04-22T03:14:35;99751.00;;;4.99;60.33
47761;BME280;33524;55.434;38.520;2023-04-22T03:17:03;99747.06;;;4.47;64.34
47761;BME280;33524;55.434;38.520;2023-04-22T03:19:32;99758.00;;;4.68;63.15
47761;BME280;33524;55.434;38.520;2023-04-22T03:22:00;99738.75;;;4.71;62.68
47761;BME280;33524;55.434;38.520;2023-04-22T03:24:28;99746.16;;;4.62;63.42
47761;BME280;33524;55.434;38.520;2023-04-22T03:27:02;99747.44;;;5.14;60.41
47761;BME280;33524;55.434;38.520;2023-04-22T03:29:30;99751.09;;;5.55;57.86
47761;BME280;33524;55.434;38.520;2023-04-22T03:31:59;99726.69;;;4.84;62.44
47761;BME280;33524;55.434;38.520;2023-04-22T03:34:27;99747.53;;;5.27;60.63
47761;BME280;33524;55.434;38.520;2023-04-22T03:36:55;99749.59;;;5.65;58.46
47761;BME280;33524;55.434;38.520;2023-04-22T03:39:24;99747.72;;;5.53;59.48
47761;BME280;33524;55.434;38.520;2023-04-22T03:41:52;99752.94;;;5.53;60.42
47761;BME280;33524;55.434;38.520;2023-04-22T03:44:21;99731.66;;;5.17;61.56
47761;BME280;33524;55.434;38.520;2023-04-22T03:46:49;99760.13;;;5.35;61.53
47761;BME280;33524;55.434;38.520;2023-04-22T03:49:18;99762.72;;;5.63;60.10
47761;BME280;33524;55.434;38.520;2023-04-22T03:51:45;99766.34;;;6.17;57.93
47761;BME280;33524;55.434;38.520;2023-04-22T03:54:14;99767.28;;;6.16;58.15
47761;BME280;33524;55.434;38.520;2023-04-22T03:56:43;99772.34;;;6.32;57.31
47761;BME280;33524;55.434;38.520;2023-04-22T03:59:25;99762.69;;;6.19;58.46
47761;BME280;33524;55.434;38.520;2023-04-22T04:01:54;99774.00;;;6.47;57.53
47761;BME280;33524;55.434;38.520;2023-04-22T04:04:23;99761.22;;;6.95;55.03
47761;BME280;33524;55.434;38.520;2023-04-22T04:06:52;99743.41;;;7.39;52.84
47761;BME280;33524;55.434;38.520;2023-04-22T04:09:20;99767.81;;;7.01;55.19
47761;BME280;33524;55.434;38.520;2023-04-22T04:11:48;99769.66;;;7.50;53.59
47761;BME280;33524;55.434;38.520;2023-04-22T04:14:16;99764.37;;;8.13;51.82
47761;BME280;33524;55.434;38.520;2023-04-22T04:16:45;99768.31;;;7.44;53.58
47761;BME280;33524;55.434;38.520;2023-04-22T04:19:14;99769.78;;;7.48;53.64
47761;BME280;33524;55.434;38.520;2023-04-22T04:21:42;99764.97;;;7.92;52.35
47761;BME280;33524;55.434;38.520;2023-04-22T04:24:10;99757.66;;;8.45;51.11
47761;BME280;33524;55.434;38.520;2023-04-22T04:26:39;99761.94;;;8.46;51.48
47761;BME280;33524;55.434;38.520;2023-04-22T04:29:08;99758.41;;;9.17;49.49
47761;BME280;33524;55.434;38.520;2023-04-22T04:31:37;99764.97;;;9.22;49.45
47761;BME280;33524;55.434;38.520;2023-04-22T04:34:06;99759.94;;;8.61;51.43
47761;BME280;33524;55.434;38.520;2023-04-22T04:36:35;99768.19;;;9.03;50.34
47761;BME280;33524;55.434;38.520;2023-04-22T04:39:05;99743.34;;;9.86;46.53
47761;BME280;33524;55.434;38.520;2023-04-22T04:41:33;99762.88;;;10.05;47.21
47761;BME280;33524;55.434;38.520;2023-04-22T04:44:02;99765.09;;;9.55;48.71
47761;BME280;33524;55.434;38.520;2023-04-22T04:46:31;99767.69;;;9.77;49.67
47761;BME280;33524;55.434;38.520;2023-04-22T04:49:02;99776.22;;;10.36;47.93
47761;BME280;33524;55.434;38.520;2023-04-22T04:51:31;99773.16;;;9.97;47.92
47761;BME280;33524;55.434;38.520;2023-04-22T04:54:00;99768.84;;;10.50;45.30
47761;BME280;33524;55.434;38.520;2023-04-22T04:56:30;99777.25;;;9.67;46.81
47761;BME280;33524;55.434;38.520;2023-04-22T04:59:00;99770.56;;;10.29;48.63
47761;BME280;33524;55.434;38.520;2023-04-22T05:01:28;99772.81;;;11.60;44.46
47761;BME280;33524;55.434;38.520;2023-04-22T05:03:58;99771.00;;;11.60;43.07
47761;BME280;33524;55.434;38.520;2023-04-22T05:06:26;99777.97;;;10.67;44.76
47761;BME280;33524;55.434;38.520;2023-04-22T05:08:55;99766.75;;;12.68;43.45
47761;BME280;33524;55.434;38.520;2023-04-22T05:11:23;99773.31;;;12.44;44.63
47761;BME280;33524;55.434;38.520;2023-04-22T05:13:52;99773.22;;;11.96;42.86
47761;BME280;33524;55.434;38.520;2023-04-22T05:16:21;99774.47;;;11.30;46.94
47761;BME280;33524;55.434;38.520;2023-04-22T05:18:49;99770.03;;;12.99;44.05
47761;BME280;33524;55.434;38.520;2023-04-22T05:21:17;99771.81;;;13.18;42.94
47761;BME280;33524;55.434;38.520;2023-04-22T05:23:48;99762.31;;;12.29;40.31
47761;BME280;33524;55.434;38.520;2023-04-22T05:26:16;99767.88;;;12.26;43.51
47761;BME280;33524;55.434;38.520;2023-04-22T05:28:45;99766.06;;;13.70;41.92
47761;BME280;33524;55.434;38.520;2023-04-22T05:31:15;99774.81;;;12.47;44.30
47761;BME280;33524;55.434;38.520;2023-04-22T05:33:42;99770.50;;;14.79;40.71
47761;BME280;33524;55.434;38.520;2023-04-22T05:36:10;99757.66;;;13.84;41.70
47761;BME280;33524;55.434;38.520;2023-04-22T05:38:39;99757.47;;;13.68;39.34
47761;BME280;33524;55.434;38.520;2023-04-22T05:41:07;99763.03;;;12.22;39.86
47761;BME280;33524;55.434;38.520;2023-04-22T05:43:35;99761.22;;;14.39;36.65
47761;BME280;33524;55.434;38.520;2023-04-22T05:46:05;99756.87;;;14.20;40.72
47761;BME280;33524;55.434;38.520;2023-04-22T05:48:33;99759.56;;;13.92;38.46
47761;BME280;33524;55.434;38.520;2023-04-22T05:51:02;99757.47;;;16.55;38.63
47761;BME280;33524;55.434;38.520;2023-04-22T05:53:31;99769.22;;;15.35;40.78
47761;BME280;33524;55.434;38.520;2023-04-22T05:56:00;99761.00;;;16.89;38.38
47761;BME280;33524;55.434;38.520;2023-04-22T05:58:28;99754.41;;;17.88;36.60
47761;BME280;33524;55.434;38.520;2023-04-22T06:00:56;99759.81;;;16.59;36.50
47761;BME280;33524;55.434;38.520;2023-04-22T06:03:27;99762.16;;;13.74;35.59
47761;BME280;33524;55.434;38.520;2023-04-22T06:05:56;99752.94;;;16.07;40.57
47761;BME280;33524;55.434;38.520;2023-04-22T06:08:24;99748.47;;;18.32;35.78
47761;BME280;33524;55.434;38.520;2023-04-22T06:10:52;99762.72;;;17.38;33.93
47761;BME280;33524;55.434;38.520;2023-04-22T06:13:21;99751.38;;;16.88;35.42
47761;BME280;33524;55.434;38.520;2023-04-22T06:15:50;99757.28;;;16.32;38.85
47761;BME280;33524;55.434;38.520;2023-04-22T06:18:19;99752.28;;;17.28;38.04
47761;BME280;33524;55.434;38.520;2023-04-22T06:20:47;99753.03;;;16.89;37.18
47761;BME280;33524;55.434;38.520;2023-04-22T06:23:15;99749.56;;;19.37;32.96
47761;BME280;33524;55.434;38.520;2023-04-22T06:25:44;99755.28;;;16.18;32.63
47761;BME280;33524;55.434;38.520;2023-04-22T06:28:13;99756.69;;;18.46;36.56
47761;BME280;33524;55.434;38.520;2023-04-22T06:30:49;99766.34;;;15.54;32.70
47761;BME280;33524;55.434;38.520;2023-04-22T06:33:21;99759.66;;;18.05;37.44
47761;BME280;33524;55.434;38.520;2023-04-22T06:35:49;99759.59;;;16.11;30.66
47761;BME280;33524;55.434;38.520;2023-04-22T06:38:18;99756.38;;;17.94;37.55
47761;BME280;33524;55.434;38.520;2023-04-22T06:40:46;99740.78;;;18.99;34.30
47761;BME280;33524;55.434;38.520;2023-04-22T06:43:15;99751.09;;;17.39;30.44
47761;BME280;33524;55.434;38.520;2023-04-22T06:45:56;99744.38;;;17.03;32.67
47761;BME280;33524;55.434;38.520;2023-04-22T06:48:26;99735.38;;;20.18;33.73
47761;BME280;33524;55.434;38.520;2023-04-22T06:50:55;99743.09;;;19.91;31.17
47761;BME280;33524;55.434;38.520;2023-04-22T06:53:26;99744.97;;;18.78;33.26
47761;BME280;33524;55.434;38.520;2023-04-22T06:55:54;99748.53;;;18.01;34.95
47761;BME280;33524;55.434;38.520;2023-04-22T06:58:22;99746.53;;;17.64;28.34
47761;BME280;33524;55.434;38.520;2023-04-22T07:00:50;99733.91;;;20.36;34.50
47761;BME280;33524;55.434;38.520;2023-04-22T07:03:19;99746.34;;;20.94;31.58
47761;BME280;33524;55.434;38.520;2023-04-22T07:05:54;99743.94;;;21.82;31.94
47761;BME280;33524;55.434;38.520;2023-04-22T07:08:23;99742.28;;;20.76;34.20
47761;BME280;33524;55.434;38.520;2023-04-22T07:10:50;99743.28;;;17.85;30.82
47761;BME280;33524;55.434;38.520;2023-04-22T07:13:20;99742.28;;;19.46;33.96
47761;BME280;33524;55.434;38.520;2023-04-22T07:15:48;99740.72;;;20.03;33.10
47761;BME280;33524;55.434;38.520;2023-04-22T07:18:16;99754.38;;;18.66;36.69
47761;BME280;33524;55.434;38.520;2023-04-22T07:20:44;99752.91;;;19.01;27.04
47761;BME280;33524;55.434;38.520;2023-04-22T07:23:13;99752.78;;;17.71;26.91
47761;BME280;33524;55.434;38.520;2023-04-22T07:25:41;99739.19;;;21.01;33.95
47761;BME280;33524;55.434;38.520;2023-04-22T07:28:09;99742.06;;;21.76;30.19
47761;BME280;33524;55.434;38.520;2023-04-22T07:30:37;99738.16;;;22.60;31.34
47761;BME280;33524;55.434;38.520;2023-04-22T07:33:05;99733.22;;;22.44;31.79
47761;BME280;33524;55.434;38.520;2023-04-22T07:35:33;99738.66;;;22.02;28.19
47761;BME280;33524;55.434;38.520;2023-04-22T07:38:02;99733.94;;;23.37;30.91
47761;BME280;33524;55.434;38.520;2023-04-22T07:40:30;99724.56;;;24.94;28.47
47761;BME280;33524;55.434;38.520;2023-04-22T07:42:58;99726.97;;;23.30;27.88
47761;BME280;33524;55.434;38.520;2023-04-22T07:45:26;99727.16;;;23.35;29.86
47761;BME280;33524;55.434;38.520;2023-04-22T07:47:54;99731.72;;;22.28;26.33
47761;BME280;33524;55.434;38.520;2023-04-22T07:50:23;99730.84;;;21.46;23.43
47761;BME280;33524;55.434;38.520;2023-04-22T07:52:51;99725.03;;;24.34;30.07
47761;BME280;33524;55.434;38.520;2023-04-22T07:55:19;99726.22;;;25.39;28.06
47761;BME280;33524;55.434;38.520;2023-04-22T07:57:47;99722.56;;;26.54;26.74
47761;BME280;33524;55.434;38.520;2023-04-22T08:00:16;99727.44;;;21.72;30.81
47761;BME280;33524;55.434;38.520;2023-04-22T08:02:44;99739.81;;;17.37;25.25
47761;BME280;33524;55.434;38.520;2023-04-22T08:05:14;99746.44;;;17.41;26.26
47761;BME280;33524;55.434;38.520;2023-04-22T08:07:42;99749.63;;;18.15;37.10
47761;BME280;33524;55.434;38.520;2023-04-22T08:10:11;99745.59;;;17.40;24.69
47761;BME280;33524;55.434;38.520;2023-04-22T08:12:39;99736.72;;;15.67;27.50
47761;BME280;33524;55.434;38.520;2023-04-22T08:15:07;99752.59;;;16.10;28.76
47761;BME280;33524;55.434;38.520;2023-04-22T08:17:36;99751.84;;;17.64;36.99
47761;BME280;33524;55.434;38.520;2023-04-22T08:20:05;99750.81;;;18.35;31.51
47761;BME280;33524;55.434;38.520;2023-04-22T08:22:34;99749.69;;;16.38;25.75
47761;BME280;33524;55.434;38.520;2023-04-22T08:25:04;99735.97;;;20.84;30.35
47761;BME280;33524;55.434;38.520;2023-04-22T08:27:36;99735.31;;;21.10;21.80
47761;BME280;33524;55.434;38.520;2023-04-22T08:30:05;99735.91;;;23.69;28.56
47761;BME280;33524;55.434;38.520;2023-04-22T08:32:34;99733.03;;;21.35;23.16
47761;BME280;33524;55.434;38.520;2023-04-22T08:35:02;99730.34;;;21.77;30.74
47761;BME280;33524;55.434;38.520;2023-04-22T08:37:33;99728.66;;;23.04;27.36
47761;BME280;33524;55.434;38.520;2023-04-22T08:40:01;99747.50;;;20.85;27.96
47761;BME280;33524;55.434;38.520;2023-04-22T08:42:32;99739.91;;;22.00;30.64
47761;BME280;33524;55.434;38.520;2023-04-22T08:45:02;99738.78;;;21.74;31.32
47761;BME280;33524;55.434;38.520;2023-04-22T08:47:33;99722.41;;;23.89;28.59
47761;BME280;33524;55.434;38.520;2023-04-22T08:50:02;99724.13;;;24.47;27.54
47761;BME280;33524;55.434;38.520;2023-04-22T08:52:31;99727.53;;;24.29;28.79
47761;BME280;33524;55.434;38.520;2023-04-22T08:54:59;99728.47;;;22.66;23.45
47761;BME280;33524;55.434;38.520;2023-04-22T08:57:31;99724.81;;;18.61;28.52
47761;BME280;33524;55.434;38.520;2023-04-22T08:59:59;99740.31;;;17.24;25.36
47761;BME280;33524;55.434;38.520;2023-04-22T09:02:32;99755.69;;;15.46;27.44
47761;BME280;33524;55.434;38.520;2023-04-22T09:05:05;99751.22;;;14.68;28.74
47761;BME280;33524;55.434;38.520;2023-04-22T09:07:36;99753.72;;;14.16;29.44
47761;BME280;33524;55.434;38.520;2023-04-22T09:10:05;99748.66;;;14.23;29.97
47761;BME280;33524;55.434;38.520;2023-04-22T09:12:35;99759.97;;;14.51;29.41
47761;BME280;33524;55.434;38.520;2023-04-22T09:15:07;99761.62;;;14.88;28.73
47761;BME280;33524;55.434;38.520;2023-04-22T09:17:36;99754.41;;;14.18;29.44
47761;BME280;33524;55.434;38.520;2023-04-22T09:20:06;99746.28;;;15.94;36.12
47761;BME280;33524;55.434;38.520;2023-04-22T09:22:47;99736.69;;;18.50;27.29
47761;BME280;33524;55.434;38.520;2023-04-22T09:25:20;99720.19;;;24.17;26.68
47761;BME280;33524;55.434;38.520;2023-04-22T09:27:53;99712.50;;;23.89;25.39
47761;BME280;33524;55.434;38.520;2023-04-22T09:30:33;99729.19;;;20.39;31.47
47761;BME280;33524;55.434;38.520;2023-04-22T09:33:04;99725.16;;;16.68;25.79
47761;BME280;33524;55.434;38.520;2023-04-22T09:35:37;99725.41;;;16.00;27.01
47761;BME280;33524;55.434;38.520;2023-04-22T09:38:09;99745.91;;;14.50;29.09
47761;BME280;33524;55.434;38.520;2023-04-22T09:40:40;99745.53;;;14.09;30.23
47761;BME280;33524;55.434;38.520;2023-04-22T09:43:10;99745.62;;;13.72;30.73
47761;BME280;33524;55.434;38.520;2023-04-22T09:45:40;99752.97;;;13.78;31.20
47761;BME280;33524;55.434;38.520;2023-04-22T09:48:17;99742.31;;;15.90;34.18
47761;BME280;33524;55.434;38.520;2023-04-22T09:50:48;99739.97;;;15.96;28.84
47761;BME280;33524;55.434;38.520;2023-04-22T09:53:18;99729.19;;;20.17;24.52
47761;BME280;33524;55.434;38.520;2023-04-22T09:55:49;99735.38;;;19.81;29.98
47761;BME280;33524;55.434;38.520;2023-04-22T09:58:19;99726.00;;;22.58;27.91
47761;BME280;33524;55.434;38.520;2023-04-22T10:00:50;99725.38;;;22.42;24.13
47761;BME280;33524;55.434;38.520;2023-04-22T10:03:19;99725.78;;;22.86;27.77
47761;BME280;33524;55.434;38.520;2023-04-22T10:05:47;99725.81;;;19.57;23.71
47761;BME280;33524;55.434;38.520;2023-04-22T10:08:16;99722.72;;;18.48;24.97
47761;BME280;33524;55.434;38.520;2023-04-22T10:10:44;99733.69;;;18.07;25.27
47761;BME280;33524;55.434;38.520;2023-04-22T10:13:13;99738.41;;;16.36;27.27
47761;BME280;33524;55.434;38.520;2023-04-22T10:16:07;99733.13;;;15.77;28.49
47761;BME280;33524;55.434;38.520;2023-04-22T10:18:38;99747.47;;;14.97;29.48
47761;BME280;33524;55.434;38.520;2023-04-22T10:21:06;99751.03;;;15.40;29.05
47761;BME280;33524;55.434;38.520;2023-04-22T10:23:34;99743.75;;;14.90;28.88
47761;BME280;33524;55.434;38.520;2023-04-22T10:26:04;99744.91;;;14.87;29.04
47761;BME280;33524;55.434;38.520;2023-04-22T10:28:32;99740.31;;;15.92;29.46
47761;BME280;33524;55.434;38.520;2023-04-22T10:31:05;99745.62;;;15.92;27.81
47761;BME280;33524;55.434;38.520;2023-04-22T10:33:35;99736.97;;;15.82;28.83
47761;BME280;33524;55.434;38.520;2023-04-22T10:36:18;99744.94;;;17.38;30.71
47761;BME280;33524;55.434;38.520;2023-04-22T10:41:32;99738.31;;;18.59;25.94
47761;BME280;33524;55.434;38.520;2023-04-22T10:44:06;99741.37;;;17.14;28.20
47761;BME280;33524;55.434;38.520;2023-04-22T10:49:17;99739.66;;;15.90;28.24
47761;BME280;33524;55.434;38.520;2023-04-22T10:51:48;99742.59;;;17.91;27.09
47761;BME280;33524;55.434;38.520;2023-04-22T10:57:14;99752.00;;;17.14;26.97
47761;BME280;33524;55.434;38.520;2023-04-22T10:59:51;99748.00;;;15.35;27.70
47761;BME280;33524;55.434;38.520;2023-04-22T11:02:21;99748.75;;;15.88;28.11
47761;BME280;33524;55.434;38.520;2023-04-22T11:04:50;99734.47;;;18.15;26.91
47761;BME280;33524;55.434;38.520;2023-04-22T11:17:39;99742.94;;;15.84;27.92
47761;BME280;33524;55.434;38.520;2023-04-22T11:20:10;99731.84;;;18.30;31.52
47761;BME280;33524;55.434;38.520;2023-04-22T11:22:44;99715.88;;;23.00;22.00
47761;BME280;33524;55.434;38.520;2023-04-22T11:25:20;99717.25;;;21.95;22.78
47761;BME280;33524;55.434;38.520;2023-04-22T11:27:51;99721.00;;;19.82;22.55
47761;BME280;33524;55.434;38.520;2023-04-22T11:30:23;99723.69;;;18.93;24.20
47761;BME280;33524;55.434;38.520;2023-04-22T11:32:54;99729.59;;;17.57;25.36
47761;BME280;33524;55.434;38.520;2023-04-22T11:35:32;99727.44;;;16.30;27.31
47761;BME280;33524;55.434;38.520;2023-04-22T11:38:02;99730.91;;;17.61;28.23
47761;BME280;33524;55.434;38.520;2023-04-22T11:40:33;99730.75;;;16.16;28.04
47761;BME280;33524;55.434;38.520;2023-04-22T11:43:07;99739.50;;;15.58;29.15
47761;BME280;33524;55.434;38.520;2023-04-22T11:45:37;99745.78;;;15.22;28.83
47761;BME280;33524;55.434;38.520;2023-04-22T11:48:11;99749.22;;;15.41;29.55
47761;BME280;33524;55.434;38.520;2023-04-22T11:50:41;99737.03;;;16.07;28.21
47761;BME280;33524;55.434;38.520;2023-04-22T11:55:46;99732.34;;;15.84;28.90
47761;BME280;33524;55.434;38.520;2023-04-22T11:58:19;99721.31;;;16.96;29.84
47761;BME280;33524;55.434;38.520;2023-04-22T12:00:53;99727.41;;;16.06;28.12
47761;BME280;33524;55.434;38.520;2023-04-22T12:03:24;99733.09;;;16.27;27.24
47761;BME280;33524;55.434;38.520;2023-04-22T12:05:54;99725.38;;;17.31;26.28
47761;BME280;33524;55.434;38.520;2023-04-22T12:08:29;99722.50;;;18.34;30.28
47761;BME280;33524;55.434;38.520;2023-04-22T12:11:00;99728.34;;;17.36;25.86
47761;BME280;33524;55.434;38.520;2023-04-22T12:13:40;99725.38;;;17.70;25.12
47761;BME280;33524;55.434;38.520;2023-04-22T12:16:11;99729.34;;;17.35;25.87
47761;BME280;33524;55.434;38.520;2023-04-22T12:18:50;99728.09;;;17.06;25.81
47761;BME280;33524;55.434;38.520;2023-04-22T12:21:22;99725.38;;;17.70;25.74
47761;BME280;33524;55.434;38.520;2023-04-22T12:23:54;99713.09;;;17.69;25.63
47761;BME280;33524;55.434;38.520;2023-04-22T12:26:23;99715.00;;;17.44;25.51
47761;BME280;33524;55.434;38.520;2023-04-22T12:28:56;99710.78;;;19.86;23.47
47761;BME280;33524;55.434;38.520;2023-04-22T12:31:25;99708.06;;;20.01;22.71
47761;BME280;33524;55.434;38.520;2023-04-22T12:33:54;99709.72;;;18.53;24.35
47761;BME280;33524;55.434;38.520;2023-04-22T12:36:27;99715.62;;;17.15;26.04
47761;BME280;33524;55.434;38.520;2023-04-22T12:38:56;99717.50;;;16.41;26.99
47761;BME280;33524;55.434;38.520;2023-04-22T12:41:24;99714.59;;;15.42;28.10
47761;BME280;33524;55.434;38.520;2023-04-22T12:43:52;99720.09;;;15.14;27.60
47761;BME280;33524;55.434;38.520;2023-04-22T12:46:22;99716.75;;;15.12;28.29
47761;BME280;33524;55.434;38.520;2023-04-22T12:48:50;99719.87;;;14.82;28.72
47761;BME280;33524;55.434;38.520;2023-04-22T12:51:19;99718.78;;;15.53;34.61
47761;BME280;33524;55.434;38.520;2023-04-22T12:53:47;99720.00;;;16.67;28.00
47761;BME280;33524;55.434;38.520;2023-04-22T12:56:15;99713.69;;;16.10;27.85
47761;BME280;33524;55.434;38.520;2023-04-22T12:58:44;99714.53;;;16.68;27.51
47761;BME280;33524;55.434;38.520;2023-04-22T13:01:13;99712.69;;;16.61;27.72
47761;BME280;33524;55.434;38.520;2023-04-22T13:03:42;99718.66;;;16.54;27.72
47761;BME280;33524;55.434;38.520;2023-04-22T13:06:10;99709.56;;;19.37;24.46
47761;BME280;33524;55.434;38.520;2023-04-22T13:08:39;99702.13;;;21.33;21.91
47761;BME280;33524;55.434;38.520;2023-04-22T13:11:07;99704.97;;;20.62;22.75
47761;BME280;33524;55.434;38.520;2023-04-22T13:13:35;99710.50;;;19.95;22.78
47761;BME280;33524;55.434;38.520;2023-04-22T13:16:04;99721.66;;;17.40;24.70
47761;BME280;33524;55.434;38.520;2023-04-22T13:18:32;99719.44;;;15.98;26.86
47761;BME280;33524;55.434;38.520;2023-04-22T13:21:00;99725.69;;;15.80;27.48
47761;BME280;33524;55.434;38.520;2023-04-22T13:23:29;99720.97;;;15.66;28.04
47761;BME280;33524;55.434;38.520;2023-04-22T13:25:57;99733.56;;;15.29;28.74